createdAt,value
2023-10-23T00:04:28.178Z,96.55
2023-10-23T00:09:28.116Z,96.56
2023-10-23T00:14:28.130Z,96.56
2023-10-23T00:19:28.131Z,96.56
2023-10-23T00:24:28.133Z,96.56
2023-10-23T00:29:28.132Z,96.56
2023-10-23T00:34:28.122Z,96.56
2023-10-23T00:39:28.135Z,96.56
2023-10-23T00:44:28.123Z,96.57
2023-10-23T00:49:28.138Z,96.58
2023-10-23T00:54:28.139Z,96.57
2023-10-23T00:59:28.127Z,96.58
2023-10-23T01:04:28.140Z,96.58
2023-10-23T01:09:28.128Z,96.57
2023-10-23T01:14:28.142Z,96.58
2023-10-23T01:19:28.142Z,96.57
2023-10-23T01:24:28.144Z,96.57
2023-10-23T01:29:28.144Z,96.57
2023-10-23T01:34:28.133Z,96.57
2023-10-23T01:39:28.147Z,96.57
2023-10-23T01:44:28.133Z,96.56
2023-10-23T01:49:28.149Z,96.56
2023-10-23T01:54:28.149Z,96.56
2023-10-23T01:59:28.175Z,96.56
2023-10-23T02:04:28.152Z,96.56
2023-10-23T02:09:28.140Z,96.56
2023-10-23T02:14:28.152Z,96.57
2023-10-23T02:19:28.141Z,96.57
2023-10-23T02:24:28.155Z,96.57
2023-10-23T02:29:28.156Z,96.56
2023-10-23T02:34:28.144Z,96.57
2023-10-23T02:39:28.157Z,96.57
2023-10-23T02:44:28.145Z,96.57
2023-10-23T02:49:28.159Z,96.58
2023-10-23T02:54:28.159Z,96.58
2023-10-23T02:59:28.161Z,96.58
2023-10-23T03:04:28.162Z,96.58
2023-10-23T03:09:28.150Z,96.57
2023-10-23T03:14:28.162Z,96.59
2023-10-23T03:19:28.151Z,96.59
2023-10-23T03:24:28.165Z,96.6
2023-10-23T03:29:28.166Z,96.59
2023-10-23T03:34:28.191Z,96.59
2023-10-23T03:39:28.168Z,96.59
2023-10-23T03:44:28.155Z,96.59
2023-10-23T03:49:28.169Z,96.59
2023-10-23T03:54:28.170Z,96.6
2023-10-23T03:59:28.171Z,96.59
2023-10-23T04:04:28.171Z,96.59
2023-10-23T04:09:28.159Z,96.59
2023-10-23T04:14:28.172Z,96.58
2023-10-23T04:19:28.160Z,96.58
2023-10-23T04:24:28.174Z,96.58
2023-10-23T04:29:28.174Z,96.58
2023-10-23T04:34:28.176Z,96.57
2023-10-23T04:39:28.176Z,96.57
2023-10-23T04:44:28.165Z,96.57
2023-10-23T04:49:28.177Z,96.57
2023-10-23T04:54:28.165Z,96.56
2023-10-23T04:59:28.180Z,96.56
2023-10-23T05:04:28.179Z,96.56
2023-10-23T05:09:28.168Z,96.55
2023-10-23T05:14:28.181Z,96.55
2023-10-23T05:19:28.169Z,96.56
2023-10-23T05:24:28.182Z,96.56
2023-10-23T05:29:28.169Z,96.57
2023-10-23T05:34:37.443Z,96.57
2023-10-23T05:39:28.185Z,96.57
2023-10-23T05:44:28.173Z,96.57
2023-10-23T05:49:28.187Z,96.57
2023-10-23T05:54:28.174Z,96.56
2023-10-23T05:59:28.187Z,96.58
2023-10-23T06:04:28.188Z,96.58
2023-10-23T06:09:28.190Z,96.58
2023-10-23T06:14:28.189Z,96.58
2023-10-23T06:19:28.178Z,96.58
2023-10-23T06:24:28.192Z,96.59
2023-10-23T06:29:28.179Z,96.59
2023-10-23T06:34:28.193Z,96.59
2023-10-23T06:39:32.872Z,96.58
2023-10-23T06:44:28.182Z,96.58
2023-10-23T06:49:28.194Z,96.58
2023-10-23T06:54:28.183Z,96.57
2023-10-23T06:59:28.196Z,96.57
2023-10-23T07:04:28.197Z,96.56
2023-10-23T07:09:28.199Z,96.56
2023-10-23T07:14:28.198Z,96.56
2023-10-23T07:19:28.188Z,96.55
2023-10-23T07:24:28.201Z,96.56
2023-10-23T07:29:28.189Z,96.55
2023-10-23T07:34:28.226Z,96.55
2023-10-23T07:39:30.638Z,96.55
2023-10-23T07:44:28.192Z,96.54
2023-10-23T07:49:28.206Z,96.54
2023-10-23T07:54:28.194Z,96.51
2023-10-23T07:59:28.208Z,96.5
2023-10-23T08:04:28.209Z,96.5
2023-10-23T08:09:28.211Z,96.49
2023-10-23T08:14:28.212Z,96.48
2023-10-23T08:19:28.200Z,96.48
2023-10-23T08:24:28.214Z,96.48
2023-10-23T08:29:28.202Z,96.45
2023-10-23T08:34:28.217Z,96.41
2023-10-23T08:39:36.453Z,96.41
2023-10-23T08:44:28.220Z,96.41
2023-10-23T08:49:36.456Z,96.42
2023-10-23T08:54:28.211Z,96.43
2023-10-23T08:59:28.225Z,96.44
2023-10-23T09:04:28.214Z,96.44
2023-10-23T09:09:28.229Z,96.44
2023-10-23T09:14:28.230Z,96.43
2023-10-23T09:19:28.220Z,96.42
2023-10-23T09:24:28.233Z,96.42
2023-10-23T09:29:28.222Z,96.42
2023-10-23T09:34:28.236Z,96.43
2023-10-23T09:39:28.239Z,96.43
2023-10-23T09:44:28.241Z,96.43
2023-10-23T09:49:28.242Z,96.42
2023-10-23T09:54:28.231Z,96.42
2023-10-23T09:59:28.246Z,96.42
2023-10-23T10:04:28.234Z,96.4
2023-10-23T10:09:28.249Z,96.39
2023-10-23T10:14:28.250Z,96.39
2023-10-23T10:19:28.240Z,96.4
2023-10-23T10:24:28.255Z,96.4
2023-10-23T10:29:28.241Z,96.4
2023-10-23T10:34:28.258Z,96.4
2023-10-23T10:39:28.259Z,96.4
2023-10-23T10:44:28.261Z,96.39
2023-10-23T10:49:28.263Z,96.39
2023-10-23T10:54:28.252Z,96.37
2023-10-23T10:59:28.307Z,96.37
2023-10-23T11:04:28.255Z,96.36
2023-10-23T11:09:28.270Z,96.35
2023-10-23T11:14:28.272Z,96.34
2023-10-23T11:19:28.261Z,96.33
2023-10-23T11:24:28.275Z,96.31
2023-10-23T11:29:28.263Z,96.3
2023-10-23T11:34:28.278Z,96.3
2023-10-23T11:39:28.267Z,96.3
2023-10-23T11:44:28.282Z,96.29
2023-10-23T11:49:28.283Z,96.28
2023-10-23T11:54:28.273Z,96.28
2023-10-23T11:59:28.288Z,96.27
2023-10-23T12:04:28.276Z,96.27
2023-10-23T12:09:28.291Z,96.25
2023-10-23T12:14:28.293Z,96.25
2023-10-23T12:19:28.294Z,96.23
2023-10-23T12:24:28.296Z,96.22
2023-10-23T12:29:28.285Z,96.2
2023-10-23T12:34:28.300Z,96.19
2023-10-23T12:39:28.288Z,96.19
2023-10-23T12:44:28.304Z,96.18
2023-10-23T12:49:28.306Z,96.18
2023-10-23T12:54:28.295Z,96.19
2023-10-23T12:59:28.309Z,96.19
2023-10-23T13:04:28.298Z,96.19
2023-10-23T13:09:37.571Z,96.19
2023-10-23T13:14:28.315Z,96.21
2023-10-23T13:19:28.317Z,96.21
2023-10-23T13:24:28.320Z,96.19
2023-10-23T13:29:28.308Z,96.18
2023-10-23T13:34:28.322Z,96.17
2023-10-23T13:39:28.311Z,96.18
2023-10-23T13:44:28.390Z,96.17
2023-10-23T13:49:28.328Z,96.14
2023-10-23T13:54:28.330Z,96.11
2023-10-23T13:59:28.332Z,96.11
2023-10-23T14:04:28.332Z,96.1
2023-10-23T14:09:28.335Z,96.1
2023-10-23T14:14:28.324Z,96.12
2023-10-23T14:19:28.339Z,96.1
2023-10-23T14:24:28.341Z,96.08
2023-10-23T14:29:28.330Z,96.07
2023-10-23T14:34:28.344Z,96.06
2023-10-23T14:39:28.332Z,96.06
2023-10-23T14:44:28.347Z,96.04
2023-10-23T14:49:28.349Z,96.03
2023-10-23T14:54:28.351Z,96.03
2023-10-23T14:59:28.353Z,96.03
2023-10-23T15:04:28.342Z,96.02
2023-10-23T15:09:28.356Z,96.02
2023-10-23T15:14:28.345Z,96.01
2023-10-23T15:19:28.360Z,96
2023-10-23T15:24:28.362Z,96
2023-10-23T15:29:28.351Z,95.99
2023-10-23T15:34:28.365Z,95.99
2023-10-23T15:39:28.353Z,95.99
2023-10-23T15:44:28.369Z,95.98
2023-10-23T15:49:28.357Z,95.98
2023-10-23T15:54:28.372Z,95.97
2023-10-23T15:59:28.373Z,95.95
2023-10-23T16:04:28.362Z,95.93
2023-10-23T16:09:28.418Z,95.94
2023-10-23T16:14:28.365Z,95.95
2023-10-23T16:19:28.380Z,95.94
2023-10-23T16:24:28.381Z,95.95
2023-10-23T16:29:28.383Z,95.94
2023-10-23T16:34:28.384Z,95.92
2023-10-23T16:39:28.374Z,95.92
2023-10-23T16:44:28.387Z,95.92
2023-10-23T16:49:28.376Z,95.92
2023-10-23T16:54:28.392Z,95.91
2023-10-23T16:59:28.392Z,95.91
2023-10-23T17:04:28.382Z,95.92
2023-10-23T17:09:28.396Z,95.91
2023-10-23T17:14:28.384Z,95.92
2023-10-23T17:19:28.399Z,95.9
2023-10-23T17:24:28.401Z,95.9
2023-10-23T17:29:28.403Z,95.9
2023-10-23T17:34:28.403Z,95.89
2023-10-23T17:39:28.393Z,95.89
2023-10-23T17:44:28.407Z,95.89
2023-10-23T17:49:28.395Z,95.88
2023-10-23T17:54:28.418Z,95.87
2023-10-23T17:59:28.411Z,95.88
2023-10-23T18:04:28.478Z,95.86
2023-10-23T18:09:28.415Z,95.87
2023-10-23T18:14:28.404Z,95.87
2023-10-23T18:19:28.417Z,95.87
2023-10-23T18:24:28.406Z,95.88
2023-10-23T18:29:28.421Z,95.88
2023-10-23T18:34:28.423Z,95.86
2023-10-23T18:39:28.412Z,95.87
2023-10-23T18:44:28.425Z,95.87
2023-10-23T18:49:28.414Z,95.86
2023-10-23T18:54:28.428Z,95.84
2023-10-23T18:59:28.430Z,95.87
2023-10-23T19:04:28.432Z,95.88
2023-10-23T19:09:28.433Z,95.87
2023-10-23T19:14:28.423Z,95.87
2023-10-23T19:19:28.436Z,95.87
2023-10-23T19:24:28.425Z,95.88
2023-10-23T19:29:28.440Z,95.88
2023-10-23T19:34:28.442Z,95.9
2023-10-23T19:39:28.431Z,95.9
2023-10-23T19:44:28.444Z,95.91
2023-10-23T19:49:28.433Z,95.92
2023-10-23T19:54:28.447Z,95.91
2023-10-23T19:59:28.436Z,95.92
2023-10-23T20:04:28.451Z,95.93
2023-10-23T20:09:28.461Z,95.93
2023-10-23T20:14:28.442Z,95.94
2023-10-23T20:19:28.455Z,95.94
2023-10-23T20:24:28.444Z,95.95
2023-10-23T20:29:28.458Z,95.97
2023-10-23T20:34:28.460Z,95.97
2023-10-23T20:39:28.462Z,95.95
2023-10-23T20:44:28.464Z,95.97
2023-10-23T20:49:28.452Z,95.94
2023-10-23T20:54:37.725Z,95.96
2023-10-23T20:59:28.455Z,95.96
2023-10-23T21:04:28.470Z,95.97
2023-10-23T21:09:28.471Z,95.97
2023-10-23T21:14:28.460Z,95.95
2023-10-23T21:19:28.475Z,95.95
2023-10-23T21:24:28.463Z,95.95
2023-10-23T21:29:28.478Z,95.95
2023-10-23T21:34:28.478Z,95.95
2023-10-23T21:39:28.481Z,95.96
2023-10-23T21:44:28.481Z,95.97
2023-10-23T21:49:28.471Z,95.99
2023-10-23T21:54:28.485Z,95.97
2023-10-23T21:59:28.474Z,95.87
2023-10-23T22:04:28.489Z,95.95
2023-10-23T22:09:28.490Z,95.94
2023-10-23T22:14:28.540Z,95.93
2023-10-23T22:19:28.492Z,95.94
2023-10-23T22:24:28.480Z,95.95
2023-10-23T22:29:28.496Z,95.96
2023-10-23T22:34:28.483Z,95.98
2023-10-23T22:39:28.499Z,95.99
2023-10-23T22:44:28.500Z,95.98
2023-10-23T22:49:28.489Z,96
2023-10-23T22:54:28.504Z,96
2023-10-23T22:59:28.492Z,95.98
2023-10-23T23:04:28.506Z,95.97
2023-10-23T23:09:28.507Z,95.97
2023-10-23T23:14:28.510Z,95.95
2023-10-23T23:19:28.510Z,95.95
2023-10-23T23:24:28.500Z,95.91
2023-10-23T23:29:28.514Z,95.93
2023-10-23T23:34:28.502Z,95.95
2023-10-23T23:39:28.517Z,95.94
2023-10-23T23:44:28.518Z,95.93
2023-10-23T23:49:28.544Z,95.92
2023-10-23T23:54:28.522Z,95.93
2023-10-23T23:59:28.510Z,95.93
